sensor_id;sensor_type;location;lat;lon;timestamp;pressure;altitude;pressure_sealevel;temperature;humidity
55191;BME280;41070;50.360;18.742;2023-11-19T00:05:48;99179.98;;;-0.42;96.20
55191;BME280;41070;50.360;18.742;2023-11-19T06:17:24;98665.99;;;0.12;97.60
55191;BME280;41070;50.360;18.742;2023-11-19T06:20:12;98675.78;;;0.13;97.38
55191;BME280;41070;50.360;18.742;2023-11-19T06:23:26;98673.77;;;0.12;97.59
55191;BME280;41070;50.360;18.742;2023-11-19T06:26:38;98664.64;;;0.10;97.36
55191;BME280;41070;50.360;18.742;2023-11-19T06:29:44;98650.11;;;0.11;97.38
55191;BME280;41070;50.360;18.742;2023-11-19T06:32:52;98637.02;;;0.17;97.96
55191;BME280;41070;50.360;18.742;2023-11-19T06:36:00;98636.63;;;0.23;97.60
55191;BME280;41070;50.360;18.742;2023-11-19T06:39:25;98633.02;;;0.24;97.42
55191;BME280;41070;50.360;18.742;2023-11-19T06:42:35;98628.70;;;0.26;97.56
55191;BME280;41070;50.360;18.742;2023-11-19T06:45:45;98616.64;;;0.27;97.58
55191;BME280;41070;50.360;18.742;2023-11-19T06:48:53;98603.89;;;0.29;97.46
55191;BME280;41070;50.360;18.742;2023-11-19T06:52:03;98606.48;;;0.27;97.25
55191;BME280;41070;50.360;18.742;2023-11-19T06:55:14;98611.98;;;0.31;97.72
55191;BME280;41070;50.360;18.742;2023-11-19T06:58:21;98613.53;;;0.35;97.96
55191;BME280;41070;50.360;18.742;2023-11-19T07:07:46;98604.21;;;0.43;97.25
55191;BME280;41070;50.360;18.742;2023-11-19T07:11:57;98597.55;;;0.48;97.63
55191;BME280;41070;50.360;18.742;2023-11-19T07:15:14;98581.64;;;0.54;97.78
55191;BME280;41070;50.360;18.742;2023-11-19T07:18:25;98586.68;;;0.56;97.14
55191;BME280;41070;50.360;18.742;2023-11-19T07:21:33;98592.71;;;0.60;97.76
55191;BME280;41070;50.360;18.742;2023-11-19T07:26:04;98603.02;;;0.67;97.74
55191;BME280;41070;50.360;18.742;2023-11-19T07:29:13;98603.81;;;0.73;97.77
55191;BME280;41070;50.360;18.742;2023-11-19T07:39:37;98582.06;;;0.89;97.69
55191;BME280;41070;50.360;18.742;2023-11-19T07:42:49;98571.53;;;0.89;97.24
55191;BME280;41070;50.360;18.742;2023-11-19T07:45:57;98560.44;;;0.92;97.39
55191;BME280;41070;50.360;18.742;2023-11-19T07:52:18;98534.88;;;1.02;97.75
55191;BME280;41070;50.360;18.742;2023-11-19T07:55:27;98523.30;;;1.06;97.41
55191;BME280;41070;50.360;18.742;2023-11-19T07:58:35;98521.80;;;1.07;97.11
55191;BME280;41070;50.360;18.742;2023-11-19T08:01:44;98520.42;;;1.03;97.45
55191;BME280;41070;50.360;18.742;2023-11-19T08:04:55;98517.83;;;1.05;97.33
55191;BME280;41070;50.360;18.742;2023-11-19T08:08:03;98514.98;;;1.09;97.52
55191;BME280;41070;50.360;18.742;2023-11-19T08:11:11;98511.23;;;1.10;97.15
55191;BME280;41070;50.360;18.742;2023-11-19T08:18:10;98516.15;;;1.17;97.40
55191;BME280;41070;50.360;18.742;2023-11-19T08:21:19;98504.70;;;1.19;97.05
55191;BME280;41070;50.360;18.742;2023-11-19T08:24:31;98495.73;;;1.15;96.71
55191;BME280;41070;50.360;18.742;2023-11-19T08:27:39;98495.74;;;1.13;96.90
55191;BME280;41070;50.360;18.742;2023-11-19T08:30:48;98495.48;;;1.14;97.18
55191;BME280;41070;50.360;18.742;2023-11-19T08:34:02;98494.48;;;1.13;96.94
55191;BME280;41070;50.360;18.742;2023-11-19T08:36:50;98492.98;;;1.11;96.83
55191;BME280;41070;50.360;18.742;2023-11-19T08:43:07;98487.91;;;1.17;97.45
55191;BME280;41070;50.360;18.742;2023-11-19T08:46:16;98491.56;;;1.19;97.10
55191;BME280;41070;50.360;18.742;2023-11-19T08:52:33;98477.78;;;1.21;97.39
55191;BME280;41070;50.360;18.742;2023-11-19T08:55:42;98460.29;;;1.26;97.87
55191;BME280;41070;50.360;18.742;2023-11-19T08:58:50;98450.84;;;1.25;96.98
55191;BME280;41070;50.360;18.742;2023-11-19T09:02:23;98446.67;;;1.26;96.98
55191;BME280;41070;50.360;18.742;2023-11-19T09:05:09;98439.98;;;1.30;97.50
55191;BME280;41070;50.360;18.742;2023-11-19T09:08:17;98439.52;;;1.33;97.43
55191;BME280;41070;50.360;18.742;2023-11-19T09:11:45;98454.89;;;1.38;97.18
55191;BME280;41070;50.360;18.742;2023-11-19T09:18:24;98444.58;;;1.37;96.83
55191;BME280;41070;50.360;18.742;2023-11-19T09:21:36;98437.83;;;1.41;97.14
55191;BME280;41070;50.360;18.742;2023-11-19T09:24:47;98423.67;;;1.46;96.73
55191;BME280;41070;50.360;18.742;2023-11-19T09:27:57;98415.75;;;1.47;96.66
55191;BME280;41070;50.360;18.742;2023-11-19T09:31:30;98406.80;;;1.49;96.92
55191;BME280;41070;50.360;18.742;2023-11-19T09:34:14;98389.94;;;1.55;96.67
55191;BME280;41070;50.360;18.742;2023-11-19T09:37:22;98385.35;;;1.59;96.57
55191;BME280;41070;50.360;18.742;2023-11-19T09:40:31;98378.13;;;1.62;96.70
55191;BME280;41070;50.360;18.742;2023-11-19T09:46:58;98359.28;;;1.79;96.91
55191;BME280;41070;50.360;18.742;2023-11-19T09:57:14;98352.07;;;2.00;96.42
55191;BME280;41070;50.360;18.742;2023-11-19T10:00:23;98338.04;;;2.08;96.56
55191;BME280;41070;50.360;18.742;2023-11-19T10:03:55;98329.55;;;2.11;95.53
55191;BME280;41070;50.360;18.742;2023-11-19T10:07:40;98322.02;;;2.21;95.78
55191;BME280;41070;50.360;18.742;2023-11-19T10:10:48;98324.39;;;2.23;95.62
55191;BME280;41070;50.360;18.742;2023-11-19T10:16:39;98316.45;;;2.22;95.03
55191;BME280;41070;50.360;18.742;2023-11-19T10:19:49;98307.70;;;2.22;94.84
55191;BME280;41070;50.360;18.742;2023-11-19T10:23:00;98302.83;;;2.24;95.23
55191;BME280;41070;50.360;18.742;2023-11-19T10:26:49;98299.56;;;2.26;95.38
55191;BME280;41070;50.360;18.742;2023-11-19T10:32:33;98287.44;;;2.21;95.17
55191;BME280;41070;50.360;18.742;2023-11-19T10:43:04;98242.73;;;2.14;95.77
55191;BME280;41070;50.360;18.742;2023-11-19T10:50:09;98238.02;;;2.13;95.79
55191;BME280;41070;50.360;18.742;2023-11-19T10:53:31;98235.75;;;2.15;96.09
55191;BME280;41070;50.360;18.742;2023-11-19T11:05:25;98236.14;;;1.99;96.98
55191;BME280;41070;50.360;18.742;2023-11-19T11:14:54;98205.98;;;1.74;96.63
55191;BME280;41070;50.360;18.742;2023-11-19T11:18:23;98197.26;;;1.64;96.92
55191;BME280;41070;50.360;18.742;2023-11-19T11:21:54;98186.30;;;1.54;96.69
55191;BME280;41070;50.360;18.742;2023-11-19T11:38:45;98159.95;;;1.36;97.52
55191;BME280;41070;50.360;18.742;2023-11-19T11:42:33;98152.30;;;1.33;98.08
55191;BME280;41070;50.360;18.742;2023-11-19T11:45:39;98166.86;;;1.28;97.72
55191;BME280;41070;50.360;18.742;2023-11-19T11:48:51;98159.94;;;1.23;97.82
55191;BME280;41070;50.360;18.742;2023-11-19T12:05:59;98138.83;;;1.30;98.69
55191;BME280;41070;50.360;18.742;2023-11-19T12:09:20;98136.15;;;1.31;98.51
55191;BME280;41070;50.360;18.742;2023-11-19T13:14:07;98041.28;;;1.62;100.00
55191;BME280;41070;50.360;18.742;2023-11-19T13:17:16;98038.44;;;1.62;100.00
55191;BME280;41070;50.360;18.742;2023-11-19T13:21:14;98032.13;;;1.66;100.00
55191;BME280;41070;50.360;18.742;2023-11-19T13:37:07;98002.52;;;1.86;100.00
55191;BME280;41070;50.360;18.742;2023-11-19T13:40:49;97998.10;;;1.94;100.00
55191;BME280;41070;50.360;18.742;2023-11-19T13:43:52;97996.52;;;1.99;100.00
55191;BME280;41070;50.360;18.742;2023-11-19T13:47:10;97998.36;;;2.01;100.00
55191;BME280;41070;50.360;18.742;2023-11-19T13:53:59;97996.45;;;2.03;100.00
55191;BME280;41070;50.360;18.742;2023-11-19T13:56:44;97994.25;;;2.07;100.00
55191;BME280;41070;50.360;18.742;2023-11-19T14:00:19;97991.01;;;2.09;100.00
55191;BME280;41070;50.360;18.742;2023-11-19T14:03:11;97983.40;;;2.07;100.00
55191;BME280;41070;50.360;18.742;2023-11-19T14:06:22;97987.05;;;2.08;100.00
55191;BME280;41070;50.360;18.742;2023-11-19T14:09:34;97980.94;;;2.12;100.00
55191;BME280;41070;50.360;18.742;2023-11-19T14:16:19;97978.95;;;2.23;100.00
55191;BME280;41070;50.360;18.742;2023-11-19T14:28:32;97974.07;;;2.42;100.00
55191;BME280;41070;50.360;18.742;2023-11-19T14:31:54;97970.29;;;2.48;100.00
55191;BME280;41070;50.360;18.742;2023-11-19T14:35:49;97972.80;;;2.53;100.00
55191;BME280;41070;50.360;18.742;2023-11-19T14:38:28;97969.49;;;2.58;100.00
55191;BME280;41070;50.360;18.742;2023-11-19T14:41:42;97968.96;;;2.65;100.00
55191;BME280;41070;50.360;18.742;2023-11-19T14:44:51;97973.30;;;2.66;100.00
55191;BME280;41070;50.360;18.742;2023-11-19T14:48:07;97964.34;;;2.67;100.00
55191;BME280;41070;50.360;18.742;2023-11-19T14:51:17;97962.09;;;2.71;100.00
55191;BME280;41070;50.360;18.742;2023-11-19T14:54:31;97965.21;;;2.73;100.00
55191;BME280;41070;50.360;18.742;2023-11-19T14:57:41;97964.35;;;2.75;100.00
55191;BME280;41070;50.360;18.742;2023-11-19T15:00:52;97964.35;;;2.77;100.00
55191;BME280;41070;50.360;18.742;2023-11-19T15:07:26;97978.05;;;2.83;100.00
55191;BME280;41070;50.360;18.742;2023-11-19T15:10:32;97974.98;;;2.86;100.00
55191;BME280;41070;50.360;18.742;2023-11-19T15:14:07;97976.64;;;2.90;100.00
55191;BME280;41070;50.360;18.742;2023-11-19T15:16:59;97977.61;;;2.91;100.00
55191;BME280;41070;50.360;18.742;2023-11-19T15:20:32;97972.02;;;2.92;100.00
55191;BME280;41070;50.360;18.742;2023-11-19T15:26:53;97974.02;;;2.95;100.00
55191;BME280;41070;50.360;18.742;2023-11-19T15:30:13;97982.77;;;3.00;100.00
55191;BME280;41070;50.360;18.742;2023-11-19T15:40:06;97981.56;;;3.03;100.00
55191;BME280;41070;50.360;18.742;2023-11-19T15:43:07;97981.16;;;3.04;100.00
55191;BME280;41070;50.360;18.742;2023-11-19T15:56:04;97975.09;;;3.12;100.00
55191;BME280;41070;50.360;18.742;2023-11-19T15:59:22;97971.73;;;3.13;100.00
55191;BME280;41070;50.360;18.742;2023-11-19T16:02:33;97962.18;;;3.14;100.00
55191;BME280;41070;50.360;18.742;2023-11-19T16:09:57;97954.95;;;3.13;100.00
55191;BME280;41070;50.360;18.742;2023-11-19T16:13:01;97955.16;;;3.12;100.00
55191;BME280;41070;50.360;18.742;2023-11-19T16:16:14;97966.39;;;3.13;100.00
55191;BME280;41070;50.360;18.742;2023-11-19T16:19:46;97968.16;;;3.14;100.00
55191;BME280;41070;50.360;18.742;2023-11-19T16:27:49;97976.76;;;3.20;100.00
55191;BME280;41070;50.360;18.742;2023-11-19T16:31:00;97973.77;;;3.21;100.00
55191;BME280;41070;50.360;18.742;2023-11-19T16:34:08;97971.72;;;3.22;100.00
55191;BME280;41070;50.360;18.742;2023-11-19T16:37:43;97966.61;;;3.23;100.00
55191;BME280;41070;50.360;18.742;2023-11-19T16:40:29;97964.28;;;3.23;100.00
55191;BME280;41070;50.360;18.742;2023-11-19T16:43:37;97972.19;;;3.26;100.00
55191;BME280;41070;50.360;18.742;2023-11-19T16:47:06;97977.10;;;3.28;100.00
